You are not logged in, Click here to log in
ICAO: WMKK Country: 馬來西亞
Latitude: 2.75452 Longitude: 101.704
Total Arrivals: 26 Total Departures: 28
Latest Arrival: CI5854 (WIII-WMKK)Lun. Wang Latest Departure: CI561E (WMKK-WSSS)Lun. Wang
Scenery:
METAR : WMKK 180700Z VRB05KT 6000 FEW017CB SCT018 BKN280 33/25 Q1009 NOSIG

吉隆坡國際機場KUL